createdAt,value
2018-10-17T00:01:24.037Z,27.95
2018-10-17T00:03:50.734Z,27.94
2018-10-17T00:06:17.439Z,27.92
2018-10-17T00:08:44.075Z,27.94
2018-10-17T00:11:10.785Z,27.96
2018-10-17T00:13:37.446Z,27.96
2018-10-17T00:16:04.137Z,27.95
2018-10-17T00:18:30.802Z,27.97
2018-10-17T00:20:57.559Z,27.97
2018-10-17T00:23:24.375Z,27.95
2018-10-17T00:25:51.034Z,27.98
2018-10-17T00:28:17.671Z,27.97
2018-10-17T00:30:44.346Z,27.96
2018-10-17T00:33:12.360Z,28.04
2018-10-17T00:35:37.732Z,28.03
2018-10-17T00:38:05.726Z,28.02
2018-10-17T00:40:31.145Z,28.05
2018-10-17T00:42:57.816Z,28.07
2018-10-17T00:45:25.822Z,28.09
2018-10-17T00:47:51.160Z,28.10
2018-10-17T00:50:17.847Z,28.11
2018-10-17T00:52:44.518Z,28.15
2018-10-17T00:55:11.199Z,28.12
2018-10-17T00:57:37.805Z,28.10
2018-10-17T01:00:04.514Z,28.16
2018-10-17T01:02:33.239Z,28.15
2018-10-17T01:05:00.013Z,28.16
2018-10-17T01:07:26.621Z,28.18
2018-10-17T01:09:53.266Z,28.12
2018-10-17T01:12:19.919Z,28.18
2018-10-17T01:14:46.557Z,28.16
2018-10-17T01:17:13.292Z,28.13
2018-10-17T01:19:41.989Z,28.18
2018-10-17T01:22:06.559Z,28.18
2018-10-17T01:24:34.526Z,28.13
2018-10-17T01:27:01.939Z,28.16
2018-10-17T01:29:26.610Z,28.15
2018-10-17T01:31:53.250Z,28.21
2018-10-17T01:34:19.919Z,28.23
2018-10-17T01:36:49.401Z,28.24
2018-10-17T01:39:16.113Z,28.27
2018-10-17T01:41:42.814Z,28.30
2018-10-17T01:44:09.462Z,28.25
2018-10-17T01:46:36.186Z,28.27
2018-10-17T01:49:04.210Z,28.31
2018-10-17T01:51:29.469Z,28.38
2018-10-17T01:53:56.165Z,28.33
2018-10-17T01:56:22.853Z,28.42
2018-10-17T01:58:50.757Z,28.42
2018-10-17T02:01:16.204Z,28.46
2018-10-17T02:03:42.814Z,28.41
2018-10-17T02:06:09.558Z,28.40
2018-10-17T02:08:36.252Z,28.40
2018-10-17T02:11:02.906Z,28.44
2018-10-17T02:13:29.601Z,28.41
2018-10-17T02:15:56.285Z,28.40
2018-10-17T02:18:22.980Z,28.40
2018-10-17T02:20:49.688Z,28.38
2018-10-17T02:23:19.268Z,28.42
2018-10-17T02:25:46.006Z,28.39
2018-10-17T02:28:13.738Z,28.44
2018-10-17T02:30:40.377Z,28.45
2018-10-17T02:33:07.082Z,28.39
2018-10-17T02:35:33.723Z,28.42
2018-10-17T02:38:00.357Z,28.41
2018-10-17T02:40:27.045Z,28.41
2018-10-17T02:42:53.779Z,28.42
2018-10-17T02:45:23.687Z,28.39
2018-10-17T02:47:50.330Z,28.41
2018-10-17T02:50:17.028Z,28.35
2018-10-17T02:52:43.708Z,28.39
2018-10-17T02:55:10.490Z,28.43
2018-10-17T02:57:37.040Z,28.45
2018-10-17T03:00:03.677Z,28.45
2018-10-17T03:02:30.367Z,28.42
2018-10-17T03:04:57.073Z,28.45
2018-10-17T03:07:23.722Z,28.43
2018-10-17T03:09:50.472Z,29.11
2018-10-17T03:12:17.172Z,29.33
2018-10-17T03:14:43.886Z,29.32
2018-10-17T03:17:10.591Z,29.22
2018-10-17T03:19:37.322Z,29.33
2018-10-17T03:22:04.061Z,29.28
2018-10-17T03:24:30.770Z,29.39
2018-10-17T03:26:57.474Z,29.43
2018-10-17T03:29:24.215Z,29.70
2018-10-17T03:31:50.952Z,29.29
2018-10-17T03:34:17.621Z,29.01
2018-10-17T03:36:44.327Z,28.96
2018-10-17T03:39:11.102Z,28.41
2018-10-17T03:41:37.792Z,28.19
2018-10-17T03:44:04.486Z,27.74
2018-10-17T03:46:31.227Z,27.46
2018-10-17T03:48:57.944Z,27.16
2018-10-17T03:51:24.578Z,26.94
2018-10-17T03:53:54.247Z,26.94
2018-10-17T03:56:20.966Z,27.16
2018-10-17T03:58:47.624Z,27.33
2018-10-17T04:01:14.380Z,27.21
2018-10-17T04:03:40.908Z,27.20
2018-10-17T04:06:07.571Z,26.97
2018-10-17T04:08:34.311Z,26.96
2018-10-17T04:11:00.935Z,26.88
2018-10-17T04:13:27.563Z,26.74
2018-10-17T04:15:54.296Z,26.80
2018-10-17T04:18:23.963Z,26.70
2018-10-17T04:20:50.648Z,26.78
2018-10-17T04:23:17.343Z,26.70
2018-10-17T04:25:45.960Z,26.69
2018-10-17T04:28:10.555Z,26.68
2018-10-17T04:30:37.198Z,26.59
2018-10-17T04:33:03.890Z,26.39
2018-10-17T04:35:30.590Z,26.41
2018-10-17T04:37:57.239Z,26.40
2018-10-17T04:40:23.876Z,26.34
2018-10-17T04:42:50.625Z,26.36
2018-10-17T04:45:18.755Z,26.29
2018-10-17T04:47:43.972Z,26.23
2018-10-17T04:50:10.570Z,26.18
2018-10-17T04:52:37.291Z,26.07
2018-10-17T04:55:03.960Z,26.04
2018-10-17T04:57:30.620Z,25.93
2018-10-17T04:59:57.305Z,25.84
2018-10-17T05:02:24.044Z,25.78
2018-10-17T05:04:50.742Z,25.70
2018-10-17T05:07:17.425Z,25.65
2018-10-17T05:09:44.071Z,25.51
2018-10-17T05:12:10.721Z,25.64
2018-10-17T05:14:37.466Z,25.48
2018-10-17T05:17:04.130Z,25.24
2018-10-17T05:19:30.803Z,25.07
2018-10-17T05:21:57.526Z,25.04
2018-10-17T05:24:24.222Z,24.76
2018-10-17T05:26:50.881Z,24.08
2018-10-17T05:29:17.525Z,24.46
2018-10-17T05:31:44.220Z,24.41
2018-10-17T05:34:10.870Z,24.16
2018-10-17T05:36:37.522Z,23.96
2018-10-17T05:39:04.158Z,23.96
2018-10-17T05:41:30.814Z,23.75
2018-10-17T05:43:57.625Z,23.72
2018-10-17T05:46:24.301Z,23.58
2018-10-17T05:48:51.058Z,23.62
2018-10-17T05:51:19.097Z,24.44
2018-10-17T05:53:44.352Z,24.59
2018-10-17T05:56:11.008Z,24.71
2018-10-17T05:58:37.690Z,24.70
2018-10-17T06:01:04.472Z,24.70
2018-10-17T06:03:31.035Z,25.33
2018-10-17T06:05:57.811Z,25.06
2018-10-17T06:08:24.467Z,25.40
2018-10-17T06:10:51.119Z,25.00
2018-10-17T06:13:17.822Z,25.29
2018-10-17T06:15:44.481Z,25.14
2018-10-17T06:18:11.118Z,25.00
2018-10-17T06:20:38.030Z,25.16
2018-10-17T06:23:04.730Z,25.03
2018-10-17T06:25:31.436Z,25.05
2018-10-17T06:27:58.154Z,25.08
2018-10-17T06:30:24.931Z,25.04
2018-10-17T06:32:53.660Z,25.08
2018-10-17T06:35:18.279Z,25.12
2018-10-17T06:37:45.405Z,25.16
2018-10-17T06:40:12.101Z,25.20
2018-10-17T06:42:38.802Z,25.32
2018-10-17T06:45:05.475Z,25.26
2018-10-17T06:47:32.163Z,25.42
2018-10-17T06:49:58.940Z,25.49
2018-10-17T06:52:25.583Z,25.50
2018-10-17T06:54:52.275Z,25.54
2018-10-17T06:57:18.866Z,25.77
2018-10-17T06:59:45.630Z,25.83
2018-10-17T07:02:12.310Z,25.77
2018-10-17T07:04:38.931Z,25.75
2018-10-17T07:07:06.705Z,25.76
2018-10-17T07:09:36.366Z,25.84
2018-10-17T07:12:03.044Z,25.85
2018-10-17T07:14:29.667Z,25.87
2018-10-17T07:16:56.459Z,25.93
2018-10-17T07:19:23.045Z,26.08
2018-10-17T07:21:49.701Z,25.93
2018-10-17T07:24:16.357Z,26.12
2018-10-17T07:26:47.739Z,25.96
2018-10-17T07:29:14.596Z,26.06
2018-10-17T07:31:41.142Z,26.09
2018-10-17T07:34:07.807Z,26.09
2018-10-17T07:36:34.509Z,26.23
2018-10-17T07:39:02.453Z,26.51
2018-10-17T07:41:31.064Z,26.67
2018-10-17T07:43:57.821Z,26.41
2018-10-17T07:46:24.526Z,26.60
2018-10-17T07:48:51.244Z,26.53
2018-10-17T07:51:17.959Z,26.66
2018-10-17T07:53:44.599Z,26.68
2018-10-17T07:56:11.330Z,26.70
2018-10-17T07:58:37.985Z,26.72
2018-10-17T08:01:04.644Z,26.65
2018-10-17T08:03:31.279Z,26.76
2018-10-17T08:05:59.227Z,26.88
2018-10-17T08:08:24.598Z,26.83
2018-10-17T08:10:51.331Z,26.97
2018-10-17T08:13:18.049Z,27.15
2018-10-17T08:15:44.821Z,27.05
2018-10-17T08:18:12.729Z,27.05
2018-10-17T08:20:38.210Z,27.09
2018-10-17T08:23:04.980Z,27.09
2018-10-17T08:25:31.603Z,27.26
2018-10-17T08:27:58.298Z,27.21
2018-10-17T08:30:27.620Z,27.14
2018-10-17T08:32:54.290Z,27.18
2018-10-17T08:35:21.072Z,27.10
2018-10-17T08:37:48.196Z,27.06
2018-10-17T08:40:14.509Z,27.13
2018-10-17T08:42:42.353Z,27.41
2018-10-17T08:45:07.878Z,27.25
2018-10-17T08:47:34.501Z,27.23
2018-10-17T08:50:01.185Z,27.40
2018-10-17T08:52:27.827Z,27.44
2018-10-17T08:54:57.503Z,27.37
2018-10-17T08:57:24.174Z,27.27
2018-10-17T08:59:50.825Z,27.43
2018-10-17T09:02:17.589Z,27.38
2018-10-17T09:04:44.244Z,27.48
2018-10-17T09:07:10.993Z,27.35
2018-10-17T09:09:37.759Z,27.47
2018-10-17T09:12:04.394Z,27.37
2018-10-17T09:14:31.029Z,27.43
2018-10-17T09:16:58.897Z,27.01
2018-10-17T09:19:24.423Z,26.99
2018-10-17T09:21:51.347Z,26.96
2018-10-17T09:24:17.872Z,26.98
2018-10-17T09:26:44.481Z,26.89
2018-10-17T09:29:11.162Z,27.02
2018-10-17T09:31:37.772Z,27.01
2018-10-17T09:34:04.505Z,26.75
2018-10-17T09:36:31.098Z,27.01
2018-10-17T09:38:57.760Z,27.20
2018-10-17T09:41:24.452Z,27.09
2018-10-17T09:43:52.208Z,27.01
2018-10-17T09:46:18.958Z,26.94
2018-10-17T09:48:45.687Z,26.94
2018-10-17T09:51:12.432Z,26.75
2018-10-17T09:53:39.176Z,26.83
2018-10-17T09:56:05.784Z,26.70
2018-10-17T09:58:32.509Z,26.91
2018-10-17T10:00:59.183Z,27.09
2018-10-17T10:03:26.009Z,27.06
2018-10-17T10:05:52.698Z,27.00
2018-10-17T10:08:19.372Z,27.01
2018-10-17T10:10:46.134Z,26.97
2018-10-17T10:13:12.768Z,26.82
2018-10-17T10:15:40.482Z,26.84
2018-10-17T10:18:06.060Z,26.90
2018-10-17T10:20:32.696Z,26.85
2018-10-17T10:22:59.412Z,26.70
2018-10-17T10:25:28.315Z,26.66
2018-10-17T10:27:55.009Z,26.72
2018-10-17T10:30:21.831Z,26.55
2018-10-17T10:32:48.391Z,26.82
2018-10-17T10:35:15.050Z,26.57
2018-10-17T10:37:41.746Z,26.74
2018-10-17T10:42:35.169Z,26.04
2018-10-17T10:45:01.899Z,26.07
2018-10-17T10:47:29.894Z,26.14
2018-10-17T10:49:55.222Z,26.48
2018-10-17T10:52:22.048Z,26.23
2018-10-17T10:54:48.766Z,26.48
2018-10-17T10:57:15.463Z,26.18
2018-10-17T10:59:42.174Z,26.26
2018-10-17T11:02:08.818Z,26.25
2018-10-17T11:04:35.688Z,26.07
2018-10-17T11:07:02.286Z,26.47
2018-10-17T11:09:28.984Z,26.20
2018-10-17T11:11:55.641Z,26.19
2018-10-17T11:14:23.588Z,26.16
2018-10-17T11:16:50.064Z,26.20
2018-10-17T11:19:16.693Z,26.22
2018-10-17T11:21:43.364Z,26.09
2018-10-17T11:24:13.029Z,26.07
2018-10-17T11:26:39.700Z,26.06
2018-10-17T11:29:07.428Z,26.02
2018-10-17T11:31:34.016Z,25.98
2018-10-17T11:34:00.876Z,25.90
2018-10-17T11:36:27.647Z,25.89
2018-10-17T11:38:54.423Z,25.96
2018-10-17T11:41:24.501Z,25.70
2018-10-17T11:43:51.076Z,25.84
2018-10-17T11:46:19.638Z,25.89
2018-10-17T11:48:44.911Z,25.74
2018-10-17T11:51:11.698Z,25.93
2018-10-17T11:53:38.302Z,25.55
2018-10-17T11:56:08.140Z,25.75
2018-10-17T11:58:37.785Z,25.84
2018-10-17T12:01:04.456Z,25.65
2018-10-17T12:03:31.182Z,25.60
2018-10-17T12:05:58.489Z,25.64
2018-10-17T12:08:24.921Z,25.66
2018-10-17T12:10:51.528Z,25.64
2018-10-17T12:13:18.169Z,25.63
2018-10-17T12:15:44.965Z,25.29
2018-10-17T12:18:14.778Z,25.08
2018-10-17T12:20:43.480Z,25.28
2018-10-17T12:23:09.085Z,23.40
2018-10-17T12:25:35.868Z,25.00
2018-10-17T12:28:02.691Z,24.07
2018-10-17T12:30:29.287Z,24.30
2018-10-17T12:32:55.998Z,24.47
2018-10-17T12:35:22.728Z,22.88
2018-10-17T12:37:49.394Z,22.92
2018-10-17T12:40:16.135Z,23.50
2018-10-17T12:42:45.967Z,23.27
2018-10-17T12:45:13.924Z,23.19
2018-10-17T12:47:39.786Z,23.89
2018-10-17T12:50:06.435Z,23.02
2018-10-17T12:52:33.113Z,23.11
2018-10-17T12:54:59.822Z,23.14
2018-10-17T12:57:26.442Z,23.00
2018-10-17T12:59:53.141Z,23.77
2018-10-17T13:02:19.849Z,23.52
2018-10-17T13:04:46.511Z,23.89
2018-10-17T13:07:13.219Z,24.16
2018-10-17T13:09:39.810Z,23.85
2018-10-17T13:12:06.463Z,23.85
2018-10-17T13:14:33.159Z,23.43
2018-10-17T13:16:59.884Z,23.54
2018-10-17T13:19:27.372Z,24.19
2018-10-17T13:21:54.099Z,24.19
2018-10-17T13:24:20.869Z,23.96
2018-10-17T13:26:48.843Z,24.21
2018-10-17T13:29:14.831Z,24.46
2018-10-17T13:31:41.623Z,24.13
2018-10-17T13:34:08.439Z,24.37
2018-10-17T13:36:35.067Z,24.07
2018-10-17T13:39:01.873Z,24.43
2018-10-17T13:41:28.635Z,24.53
2018-10-17T13:43:55.366Z,24.34
2018-10-17T13:46:22.979Z,24.21
2018-10-17T13:48:49.654Z,24.46
2018-10-17T13:51:16.251Z,24.26
2018-10-17T13:53:42.893Z,24.37
2018-10-17T13:56:09.566Z,24.21
2018-10-17T13:58:36.267Z,24.23
2018-10-17T14:01:03.020Z,24.28
2018-10-17T14:03:29.753Z,24.27
2018-10-17T14:05:56.487Z,24.22
2018-10-17T14:08:23.128Z,24.18
2018-10-17T14:10:49.768Z,24.43
2018-10-17T14:13:16.665Z,24.40
2018-10-17T14:15:44.744Z,24.32
2018-10-17T14:18:09.933Z,24.36
2018-10-17T14:20:36.701Z,24.38
2018-10-17T14:23:03.335Z,24.30
2018-10-17T14:25:30.108Z,24.68
2018-10-17T14:27:58.824Z,24.59
2018-10-17T14:30:23.658Z,24.47
2018-10-17T14:32:50.294Z,24.51
2018-10-17T14:35:19.073Z,24.52
2018-10-17T14:37:45.824Z,24.46
2018-10-17T14:40:12.411Z,24.11
2018-10-17T14:42:39.171Z,24.12
2018-10-17T14:45:05.925Z,24.03
2018-10-17T14:47:32.448Z,23.81
2018-10-17T14:49:59.283Z,23.67
2018-10-17T14:52:25.892Z,23.58
2018-10-17T14:54:52.531Z,23.51
2018-10-17T14:57:19.223Z,23.40
2018-10-17T14:59:45.928Z,23.35
2018-10-17T15:02:12.642Z,23.26
2018-10-17T15:04:39.473Z,23.17
2018-10-17T15:07:09.209Z,23.22
2018-10-17T15:09:38.666Z,23.21
2018-10-17T15:12:08.639Z,23.21
2018-10-17T15:14:35.231Z,23.26
2018-10-17T15:17:02.168Z,23.10
2018-10-17T15:19:28.669Z,23.07
2018-10-17T15:21:55.332Z,23.21
2018-10-17T15:24:22.108Z,23.19
2018-10-17T15:26:48.709Z,23.27
2018-10-17T15:29:15.510Z,23.31
2018-10-17T15:31:42.178Z,23.37
2018-10-17T15:34:08.772Z,23.37
2018-10-17T15:36:35.603Z,23.55
2018-10-17T15:39:02.327Z,23.44
2018-10-17T15:41:28.916Z,23.50
2018-10-17T15:43:55.562Z,23.70
2018-10-17T15:46:23.240Z,23.81
2018-10-17T15:48:49.959Z,23.88
2018-10-17T15:51:17.354Z,23.99
2018-10-17T15:53:44.023Z,24.18
2018-10-17T15:56:10.661Z,24.25
2018-10-17T15:58:37.386Z,24.34
2018-10-17T16:01:04.099Z,24.52
2018-10-17T16:03:30.730Z,24.64
2018-10-17T16:05:57.456Z,24.79
2018-10-17T16:08:24.186Z,24.85
2018-10-17T16:10:50.788Z,24.92
2018-10-17T16:13:17.493Z,24.89
2018-10-17T16:15:44.256Z,24.82
2018-10-17T16:18:11.127Z,24.89
2018-10-17T16:20:37.683Z,25.00
2018-10-17T16:23:04.576Z,24.94
2018-10-17T16:25:32.428Z,25.07
2018-10-17T16:27:57.854Z,25.23
2018-10-17T16:30:24.679Z,25.28
2018-10-17T16:32:51.185Z,25.35
2018-10-17T16:35:17.976Z,25.40
2018-10-17T16:37:44.716Z,25.42
2018-10-17T16:40:13.604Z,25.47
2018-10-17T16:42:40.405Z,25.49
2018-10-17T16:45:07.005Z,25.52
2018-10-17T16:47:33.717Z,25.56
2018-10-17T16:50:00.350Z,25.55
2018-10-17T16:52:28.300Z,25.61
2018-10-17T16:54:55.173Z,25.62
2018-10-17T16:57:24.939Z,25.63
2018-10-17T16:59:53.034Z,25.57
2018-10-17T17:02:18.308Z,25.42
2018-10-17T17:04:44.999Z,25.53
2018-10-17T17:07:11.647Z,25.67
2018-10-17T17:09:38.436Z,25.73
2018-10-17T17:12:05.175Z,25.77
2018-10-17T17:14:31.936Z,25.84
2018-10-17T17:16:58.517Z,25.78
2018-10-17T17:19:27.200Z,25.79
2018-10-17T17:21:51.886Z,25.82
2018-10-17T17:24:18.561Z,25.88
2018-10-17T17:26:45.258Z,25.96
2018-10-17T17:29:11.925Z,26.04
2018-10-17T17:31:38.624Z,26.00
2018-10-17T17:34:05.302Z,26.03
2018-10-17T17:36:33.346Z,26.05
2018-10-17T17:38:58.626Z,26.04
2018-10-17T17:41:25.292Z,26.05
2018-10-17T17:43:51.996Z,26.07
2018-10-17T17:46:18.597Z,26.03
2018-10-17T17:48:45.242Z,26.09
2018-10-17T17:51:11.939Z,26.05
2018-10-17T17:53:38.628Z,26.04
2018-10-17T17:56:07.312Z,26.11
2018-10-17T17:58:32.211Z,26.14
2018-10-17T18:00:58.651Z,26.15
2018-10-17T18:03:25.289Z,26.16
2018-10-17T18:05:51.974Z,26.21
2018-10-17T18:08:18.607Z,26.21
2018-10-17T18:10:45.285Z,26.21
2018-10-17T18:13:11.940Z,26.24
2018-10-17T18:15:38.581Z,26.23
2018-10-17T18:18:05.292Z,26.15
2018-10-17T18:20:31.934Z,26.25
2018-10-17T18:22:58.639Z,26.30
2018-10-17T18:25:28.591Z,26.30
2018-10-17T18:27:55.313Z,26.33
2018-10-17T18:30:21.915Z,26.35
2018-10-17T18:32:48.557Z,26.33
2018-10-17T18:35:15.237Z,26.34
2018-10-17T18:37:41.881Z,26.34
2018-10-17T18:40:08.599Z,26.37
2018-10-17T18:42:35.168Z,26.41
2018-10-17T18:45:01.861Z,26.43
2018-10-17T18:47:28.506Z,26.47
2018-10-17T18:49:55.134Z,26.46
2018-10-17T18:52:21.893Z,26.56
2018-10-17T18:54:50.823Z,26.49
2018-10-17T18:57:16.292Z,26.50
2018-10-17T18:59:42.831Z,26.48
2018-10-17T19:02:09.539Z,26.61
2018-10-17T19:04:36.178Z,26.64
2018-10-17T19:07:02.863Z,26.68
2018-10-17T19:09:29.796Z,26.63
2018-10-17T19:11:56.508Z,26.71
2018-10-17T19:14:23.148Z,26.78
2018-10-17T19:16:49.791Z,26.74
2018-10-17T19:19:16.491Z,26.78
2018-10-17T19:21:45.312Z,26.78
2018-10-17T19:24:09.839Z,26.82
2018-10-17T19:26:36.434Z,26.78
2018-10-17T19:29:04.664Z,26.88
2018-10-17T19:31:29.697Z,26.79
2018-10-17T19:33:56.363Z,26.85
2018-10-17T19:36:23.204Z,27.03
2018-10-17T19:38:50.099Z,26.98
2018-10-17T19:41:18.105Z,27.07
2018-10-17T19:43:43.374Z,26.97
2018-10-17T19:46:10.064Z,27.01
2018-10-17T19:48:36.701Z,27.13
2018-10-17T19:51:03.412Z,26.98
2018-10-17T19:53:30.014Z,27.08
2018-10-17T19:55:56.822Z,27.17
2018-10-17T19:58:23.375Z,27.14
2018-10-17T20:03:17.707Z,27.14
2018-10-17T20:05:43.030Z,27.23
2018-10-17T20:08:09.674Z,27.26
2018-10-17T20:10:36.322Z,27.23
2018-10-17T20:13:03.028Z,27.27
2018-10-17T20:15:29.752Z,27.30
2018-10-17T20:17:56.386Z,27.32
2018-10-17T20:20:23.056Z,27.23
2018-10-17T20:22:49.694Z,27.29
2018-10-17T20:27:42.597Z,27.37
2018-10-17T20:30:09.337Z,27.33
2018-10-17T20:32:39.492Z,27.37
2018-10-17T20:35:06.184Z,27.37
2018-10-17T20:37:32.784Z,27.38
2018-10-17T20:39:59.449Z,27.44
2018-10-17T20:42:26.228Z,27.44
2018-10-17T20:44:54.147Z,27.43
2018-10-17T20:47:19.506Z,27.50
2018-10-17T20:49:46.184Z,27.56
2018-10-17T20:52:12.936Z,27.56
2018-10-17T20:54:39.590Z,27.59
2018-10-17T20:57:06.254Z,27.55
2018-10-17T20:59:32.849Z,27.59
2018-10-17T21:01:59.690Z,27.66
2018-10-17T21:04:26.125Z,27.73
2018-10-17T21:06:52.758Z,27.74
2018-10-17T21:09:20.495Z,27.73
2018-10-17T21:11:46.080Z,27.73
2018-10-17T21:14:14.220Z,27.82
2018-10-17T21:16:39.323Z,27.78
2018-10-17T21:19:05.994Z,27.79
2018-10-17T21:21:32.603Z,27.82
2018-10-17T21:23:59.239Z,27.88
2018-10-17T21:26:25.875Z,27.96
2018-10-17T21:28:52.514Z,27.89
2018-10-17T21:31:19.224Z,27.96
2018-10-17T21:33:45.869Z,27.98
2018-10-17T21:36:12.559Z,27.97
2018-10-17T21:38:39.195Z,28.00
2018-10-17T21:41:05.866Z,28.04
2018-10-17T21:43:32.550Z,28.07
2018-10-17T21:46:00.178Z,28.11
2018-10-17T21:48:25.841Z,28.12
2018-10-17T21:50:52.490Z,28.13
2018-10-17T21:53:19.131Z,28.21
2018-10-17T21:55:45.764Z,28.18
2018-10-17T21:58:12.465Z,28.25
2018-10-17T22:00:39.207Z,28.24
2018-10-17T22:03:07.597Z,28.31
2018-10-17T22:05:34.303Z,28.27
2018-10-17T22:08:01.201Z,28.39
2018-10-17T22:10:27.869Z,28.33
2018-10-17T22:12:54.729Z,28.35
2018-10-17T22:15:21.373Z,28.41
2018-10-17T22:17:48.013Z,28.38
2018-10-17T22:20:14.720Z,28.46
2018-10-17T22:22:41.677Z,28.45
2018-10-17T22:25:08.388Z,28.43
2018-10-17T22:27:35.169Z,28.47
2018-10-17T22:30:02.062Z,28.53
2018-10-17T22:32:28.545Z,28.50
2018-10-17T22:34:55.230Z,28.51
2018-10-17T22:37:21.913Z,28.54
2018-10-17T22:39:48.539Z,28.55
2018-10-17T22:42:15.175Z,28.54
2018-10-17T22:44:41.857Z,28.55
2018-10-17T22:47:08.588Z,28.64
2018-10-17T22:49:35.264Z,28.60
2018-10-17T22:52:01.967Z,28.67
2018-10-17T22:54:28.614Z,28.61
2018-10-17T22:56:55.380Z,28.61
2018-10-17T22:59:22.065Z,28.65
2018-10-17T23:01:48.702Z,28.76
2018-10-17T23:04:15.365Z,28.71
2018-10-17T23:06:42.050Z,28.72
2018-10-17T23:09:08.688Z,28.70
2018-10-17T23:11:35.360Z,28.72
2018-10-17T23:14:02.093Z,28.73
2018-10-17T23:16:31.878Z,28.73
2018-10-17T23:18:58.518Z,28.71
2018-10-17T23:21:27.278Z,28.82
2018-10-17T23:23:53.931Z,28.79
2018-10-17T23:26:20.581Z,28.79
2018-10-17T23:28:47.263Z,28.83
2018-10-17T23:31:13.901Z,28.78
2018-10-17T23:33:40.543Z,28.81
2018-10-17T23:36:10.335Z,28.85
2018-10-17T23:38:37.102Z,28.83
2018-10-17T23:41:03.759Z,28.87
2018-10-17T23:43:30.409Z,28.85
2018-10-17T23:45:59.964Z,28.87
2018-10-17T23:48:26.607Z,28.88
2018-10-17T23:50:53.358Z,28.90
2018-10-17T23:53:19.987Z,28.92
2018-10-17T23:55:46.613Z,28.89
2018-10-17T23:58:13.251Z,28.95
